createdAt,value
2018-07-14T04:00:32.893Z,12.26
2018-07-14T04:01:32.925Z,12.21
2018-07-14T04:02:32.860Z,12.18
2018-07-14T04:03:32.849Z,12.21
2018-07-14T04:04:32.848Z,12.19
2018-07-14T04:05:32.857Z,12.22
2018-07-14T04:06:32.853Z,12.15
2018-07-14T04:07:32.796Z,12.22
2018-07-14T04:08:32.786Z,12.18
2018-07-14T04:09:32.781Z,12.19
2018-07-14T04:10:32.767Z,12.30
2018-07-14T04:11:32.761Z,12.29
2018-07-14T04:12:32.745Z,12.36
2018-07-14T04:13:32.732Z,12.25
2018-07-14T04:14:32.722Z,12.36
2018-07-14T04:15:32.714Z,12.36
2018-07-14T04:16:32.731Z,12.37
2018-07-14T04:17:32.688Z,12.36
2018-07-14T04:18:32.674Z,12.34
2018-07-14T04:19:32.668Z,12.33
2018-07-14T04:20:32.652Z,12.31
2018-07-14T04:21:32.642Z,12.30
2018-07-14T04:22:32.646Z,12.33
2018-07-14T04:23:32.619Z,12.25
2018-07-14T04:24:32.616Z,12.25
2018-07-14T04:25:32.620Z,12.29
2018-07-14T04:26:32.586Z,12.31
2018-07-14T04:27:32.593Z,12.31
2018-07-14T04:28:32.562Z,12.30
2018-07-14T04:29:32.553Z,12.37
2018-07-14T04:30:32.543Z,12.31
2018-07-14T04:31:32.565Z,12.38
2018-07-14T04:32:32.531Z,12.40
2018-07-14T04:33:32.510Z,12.26
2018-07-14T04:34:32.499Z,12.36
2018-07-14T04:35:32.496Z,12.31
2018-07-14T04:36:32.480Z,12.31
2018-07-14T04:37:32.519Z,12.30
2018-07-14T04:38:32.460Z,12.31
2018-07-14T04:39:32.445Z,12.43
2018-07-14T04:40:32.445Z,12.43
2018-07-14T04:41:32.427Z,12.33
2018-07-14T04:42:32.539Z,12.34
2018-07-14T04:43:32.404Z,12.36
2018-07-14T04:44:32.394Z,12.44
2018-07-14T04:45:32.381Z,12.49
2018-07-14T04:46:32.372Z,12.48
2018-07-14T04:47:32.369Z,12.41
2018-07-14T04:48:32.346Z,12.49
2018-07-14T04:49:32.342Z,12.46
2018-07-14T04:50:32.323Z,12.41
2018-07-14T04:51:32.309Z,12.41
2018-07-14T04:52:32.345Z,12.41
2018-07-14T04:53:32.286Z,12.44
2018-07-14T04:54:32.285Z,12.49
2018-07-14T04:55:32.267Z,12.44
2018-07-14T04:56:32.262Z,12.51
2018-07-14T04:57:32.264Z,12.54
2018-07-14T04:58:32.274Z,12.46
2018-07-14T04:59:32.226Z,12.52
2018-07-14T05:00:32.210Z,12.58
2018-07-14T05:01:32.199Z,12.56
2018-07-14T05:02:32.197Z,12.51
2018-07-14T05:03:32.181Z,12.63
2018-07-14T05:04:32.168Z,12.55
2018-07-14T05:05:32.154Z,12.54
2018-07-14T05:06:32.223Z,12.51
2018-07-14T05:07:32.131Z,12.49
2018-07-14T05:08:32.135Z,12.56
2018-07-14T05:09:32.110Z,12.54
2018-07-14T05:10:32.099Z,12.59
2018-07-14T05:11:32.090Z,12.52
2018-07-14T05:12:32.078Z,12.58
2018-07-14T05:13:32.083Z,12.62
2018-07-14T05:14:32.053Z,12.61
2018-07-14T05:15:32.045Z,12.69
2018-07-14T05:16:32.034Z,12.74
2018-07-14T05:17:32.044Z,12.67
2018-07-14T05:18:32.023Z,12.69
2018-07-14T05:19:32.002Z,12.66
2018-07-14T05:20:31.989Z,12.67
2018-07-14T05:21:31.980Z,12.74
2018-07-14T05:22:32.032Z,12.70
2018-07-14T05:23:31.970Z,12.76
2018-07-14T05:24:31.951Z,12.67
2018-07-14T05:25:31.936Z,12.76
2018-07-14T05:26:31.921Z,12.70
2018-07-14T05:27:31.909Z,12.70
2018-07-14T05:28:31.928Z,12.70
2018-07-14T05:29:31.891Z,12.74
2018-07-14T05:30:31.877Z,12.74
2018-07-14T05:31:31.875Z,12.81
2018-07-14T05:32:31.856Z,12.71
2018-07-14T05:33:31.874Z,12.76
2018-07-14T05:34:31.837Z,12.76
2018-07-14T05:35:31.823Z,12.77
2018-07-14T05:36:31.817Z,12.77
2018-07-14T05:37:31.802Z,12.91
2018-07-14T05:38:31.812Z,12.85
2018-07-14T05:39:31.835Z,12.79
2018-07-14T05:40:31.766Z,12.92
2018-07-14T05:41:31.772Z,12.88
2018-07-14T05:42:31.747Z,12.95
2018-07-14T05:43:31.754Z,12.87
2018-07-14T05:44:31.757Z,12.84
2018-07-14T05:45:31.715Z,12.91
2018-07-14T05:46:31.701Z,12.94
2018-07-14T05:47:31.689Z,12.94
2018-07-14T05:48:31.691Z,12.94
2018-07-14T05:49:31.780Z,12.95
2018-07-14T05:50:31.662Z,12.94
2018-07-14T05:51:31.648Z,12.98
2018-07-14T05:52:31.635Z,12.91
2018-07-14T05:53:31.644Z,12.95
2018-07-14T05:54:31.622Z,13.03
2018-07-14T05:55:31.600Z,13.03
2018-07-14T05:56:31.596Z,13.10
2018-07-14T05:57:31.588Z,13.17
2018-07-14T05:58:31.574Z,13.13
2018-07-14T05:59:31.570Z,13.07
2018-07-14T06:00:31.546Z,13.25
2018-07-14T06:01:31.544Z,13.35
2018-07-14T06:02:31.528Z,13.48
2018-07-14T06:03:31.524Z,14.05
2018-07-14T06:04:31.516Z,14.90
2018-07-14T06:05:31.506Z,15.60
2018-07-14T06:06:31.480Z,16.32
2018-07-14T06:07:31.469Z,16.87
2018-07-14T06:08:31.459Z,17.47
2018-07-14T06:09:31.458Z,18.02
2018-07-14T06:10:31.437Z,18.62
2018-07-14T06:11:31.425Z,19.06
2018-07-14T06:12:31.416Z,19.42
2018-07-14T06:13:31.403Z,19.89
2018-07-14T06:14:31.401Z,20.22
2018-07-14T06:15:31.389Z,20.50
2018-07-14T06:16:31.367Z,20.87
2018-07-14T06:17:31.381Z,21.22
2018-07-14T06:18:31.348Z,21.37
2018-07-14T06:19:31.395Z,21.58
2018-07-14T06:20:31.337Z,21.83
2018-07-14T06:21:31.311Z,22.06
2018-07-14T06:22:31.309Z,22.20
2018-07-14T06:23:31.290Z,22.35
2018-07-14T06:24:31.296Z,22.41
2018-07-14T06:25:31.273Z,22.66
2018-07-14T06:26:31.256Z,23.00
2018-07-14T06:27:31.286Z,23.11
2018-07-14T06:28:31.236Z,23.41
2018-07-14T06:29:31.249Z,23.49
2018-07-14T06:30:31.213Z,23.59
2018-07-14T06:31:31.202Z,23.89
2018-07-14T06:32:31.190Z,24.14
2018-07-14T06:33:31.181Z,24.29
2018-07-14T06:34:31.182Z,24.53
2018-07-14T06:35:31.157Z,24.74
2018-07-14T06:36:31.147Z,24.92
2018-07-14T06:37:31.175Z,25.09
2018-07-14T06:38:31.182Z,25.22
2018-07-14T06:39:31.127Z,25.34
2018-07-14T06:40:31.104Z,25.38
2018-07-14T06:41:31.101Z,25.46
2018-07-14T06:42:31.083Z,25.60
2018-07-14T06:43:31.073Z,25.81
2018-07-14T06:44:31.080Z,25.89
2018-07-14T06:45:31.053Z,26.11
2018-07-14T06:46:31.038Z,26.23
2018-07-14T06:47:31.029Z,26.36
2018-07-14T06:48:31.016Z,26.49
2018-07-14T06:49:31.003Z,26.47
2018-07-14T06:50:31.006Z,25.75
2018-07-14T06:51:30.983Z,25.44
2018-07-14T06:52:30.971Z,25.69
2018-07-14T06:53:30.969Z,25.78
2018-07-14T06:54:30.954Z,26.16
2018-07-14T06:55:30.985Z,26.28
2018-07-14T06:56:30.943Z,26.61
2018-07-14T06:57:30.913Z,26.81
2018-07-14T06:58:30.924Z,26.98
2018-07-14T06:59:30.893Z,27.01
2018-07-14T07:00:30.892Z,27.23
2018-07-14T07:01:30.868Z,27.34
2018-07-14T07:02:30.856Z,27.71
2018-07-14T07:03:30.846Z,27.69
2018-07-14T07:04:30.834Z,27.96
2018-07-14T07:05:30.835Z,28.11
2018-07-14T07:06:30.814Z,27.99
2018-07-14T07:07:30.806Z,28.17
2018-07-14T07:08:30.796Z,28.32
2018-07-14T07:09:30.781Z,28.62
2018-07-14T07:10:30.780Z,28.82
2018-07-14T07:11:30.761Z,28.85
2018-07-14T07:12:30.752Z,29.15
2018-07-14T07:13:30.737Z,29.27
2018-07-14T07:14:30.727Z,29.36
2018-07-14T07:15:30.727Z,29.48
2018-07-14T07:16:30.708Z,29.54
2018-07-14T07:17:30.695Z,29.73
2018-07-14T07:18:30.685Z,29.79
2018-07-14T07:19:30.674Z,29.88
2018-07-14T07:20:30.672Z,30.10
2018-07-14T07:21:30.717Z,30.13
2018-07-14T07:22:30.642Z,30.32
2018-07-14T07:23:30.630Z,30.38
2018-07-14T07:24:30.622Z,30.54
2018-07-14T07:25:30.625Z,30.75
2018-07-14T07:26:30.600Z,30.79
2018-07-14T07:27:30.587Z,30.70
2018-07-14T07:28:30.577Z,30.72
2018-07-14T07:29:30.563Z,30.90
2018-07-14T07:30:30.564Z,31.12
2018-07-14T07:31:30.548Z,31.20
2018-07-14T07:32:30.531Z,31.37
2018-07-14T07:33:30.523Z,31.62
2018-07-14T07:34:30.513Z,31.75
2018-07-14T07:35:30.518Z,32.07
2018-07-14T07:36:30.488Z,32.05
2018-07-14T07:37:30.480Z,32.24
2018-07-14T07:38:30.469Z,32.16
2018-07-14T07:39:30.456Z,32.41
2018-07-14T07:40:30.447Z,32.40
2018-07-14T07:41:30.446Z,32.47
2018-07-14T07:42:30.423Z,32.62
2018-07-14T07:43:30.422Z,32.58
2018-07-14T07:44:30.402Z,32.66
2018-07-14T07:45:30.390Z,32.58
2018-07-14T07:46:30.390Z,32.65
2018-07-14T07:47:30.371Z,32.29
2018-07-14T07:48:30.357Z,31.84
2018-07-14T07:49:30.348Z,31.88
2018-07-14T07:50:30.341Z,31.37
2018-07-14T07:51:30.340Z,30.86
2018-07-14T07:52:30.315Z,31.13
2018-07-14T07:53:30.307Z,31.53
2018-07-14T07:54:30.293Z,31.37
2018-07-14T07:55:30.287Z,31.65
2018-07-14T07:56:30.286Z,32.05
2018-07-14T07:57:30.263Z,32.27
2018-07-14T07:58:30.255Z,32.59
2018-07-14T07:59:30.239Z,32.96
2018-07-14T08:00:30.253Z,32.77
2018-07-14T08:01:30.233Z,32.53
2018-07-14T08:02:30.205Z,32.51
2018-07-14T08:03:30.195Z,32.68
2018-07-14T08:04:30.189Z,33.00
2018-07-14T08:05:30.174Z,32.80
2018-07-14T08:06:30.178Z,33.11
2018-07-14T08:07:30.151Z,33.21
2018-07-14T08:08:30.147Z,33.17
2018-07-14T08:09:30.130Z,33.20
2018-07-14T08:10:30.119Z,32.65
2018-07-14T08:11:30.121Z,32.47
2018-07-14T08:12:30.102Z,32.73
2018-07-14T08:13:30.089Z,32.91
2018-07-14T08:14:30.078Z,33.17
2018-07-14T08:15:30.066Z,33.44
2018-07-14T08:16:30.067Z,33.41
2018-07-14T08:17:30.043Z,33.52
2018-07-14T08:18:30.043Z,33.17
2018-07-14T08:19:30.026Z,32.69
2018-07-14T08:20:30.013Z,32.80
2018-07-14T08:21:30.024Z,32.63
2018-07-14T08:22:29.990Z,32.44
2018-07-14T08:23:29.981Z,32.62
2018-07-14T08:24:29.967Z,33.20
2018-07-14T08:25:29.957Z,33.52
2018-07-14T08:26:29.956Z,33.45
2018-07-14T08:27:29.962Z,33.78
2018-07-14T08:28:29.926Z,33.92
2018-07-14T08:29:29.916Z,33.60
2018-07-14T08:30:29.909Z,33.56
2018-07-14T08:31:29.896Z,33.62
2018-07-14T08:32:29.948Z,34.24
2018-07-14T08:33:29.873Z,34.30
2018-07-14T08:34:29.860Z,33.68
2018-07-14T08:35:29.850Z,33.15
2018-07-14T08:36:29.848Z,33.63
2018-07-14T08:37:29.845Z,34.43
2018-07-14T08:38:29.823Z,34.53
2018-07-14T08:39:29.807Z,34.86
2018-07-14T08:40:29.802Z,34.53
2018-07-14T08:41:29.793Z,33.86
2018-07-14T08:42:29.792Z,33.81
2018-07-14T08:43:29.767Z,34.56
2018-07-14T08:44:29.756Z,35.03
2018-07-14T08:45:29.744Z,34.84
2018-07-14T08:46:29.740Z,34.61
2018-07-14T08:47:29.732Z,34.06
2018-07-14T08:48:29.709Z,34.05
2018-07-14T08:49:29.700Z,34.81
2018-07-14T08:50:29.734Z,35.15
2018-07-14T08:51:29.738Z,34.94
2018-07-14T08:52:29.685Z,34.84
2018-07-14T08:53:29.665Z,34.64
2018-07-14T08:54:29.646Z,35.78
2018-07-14T08:55:29.637Z,35.85
2018-07-14T08:56:29.624Z,36.16
2018-07-14T08:57:29.625Z,35.71
2018-07-14T08:58:29.607Z,36.15
2018-07-14T08:59:29.594Z,36.59
2018-07-14T09:00:29.599Z,36.82
2018-07-14T09:01:29.570Z,37.28
2018-07-14T09:02:29.572Z,37.72
2018-07-14T09:03:29.567Z,38.09
2018-07-14T09:04:29.537Z,38.28
2018-07-14T09:05:29.528Z,37.90
2018-07-14T09:06:29.517Z,37.93
2018-07-14T09:07:29.519Z,38.06
2018-07-14T09:08:29.503Z,37.42
2018-07-14T09:09:29.483Z,37.16
2018-07-14T09:10:29.470Z,36.84
2018-07-14T09:11:29.464Z,37.31
2018-07-14T09:12:29.452Z,37.47
2018-07-14T09:13:29.455Z,37.95
2018-07-14T09:14:29.427Z,38.10
2018-07-14T09:15:29.419Z,37.27
2018-07-14T09:16:29.449Z,37.23
2018-07-14T09:17:29.399Z,37.81
2018-07-14T09:18:29.399Z,37.81
2018-07-14T09:19:29.380Z,38.30
2018-07-14T09:20:29.364Z,38.38
2018-07-14T09:21:29.356Z,37.87
2018-07-14T09:22:29.343Z,37.38
2018-07-14T09:23:29.344Z,37.30
2018-07-14T09:24:29.324Z,38.26
2018-07-14T09:25:29.312Z,38.93
2018-07-14T09:26:29.301Z,39.69
2018-07-14T09:27:29.288Z,40.28
2018-07-14T09:28:29.291Z,40.80
2018-07-14T09:29:29.267Z,40.48
2018-07-14T09:30:29.257Z,40.75
2018-07-14T09:31:29.246Z,40.68
2018-07-14T09:32:29.248Z,40.98
2018-07-14T09:33:29.238Z,41.01
2018-07-14T09:34:29.211Z,41.05
2018-07-14T09:35:29.202Z,39.31
2018-07-14T09:36:29.197Z,38.89
2018-07-14T09:37:29.180Z,39.41
2018-07-14T09:38:29.181Z,39.20
2018-07-14T09:39:29.160Z,38.77
2018-07-14T09:40:29.147Z,38.25
2018-07-14T09:41:29.144Z,38.38
2018-07-14T09:42:29.127Z,38.86
2018-07-14T09:43:29.128Z,39.12
2018-07-14T09:44:29.117Z,38.31
2018-07-14T09:45:29.099Z,38.93
2018-07-14T09:46:29.083Z,38.25
2018-07-14T09:47:29.072Z,38.25
2018-07-14T09:48:29.074Z,39.02
2018-07-14T09:49:29.051Z,39.39
2018-07-14T09:50:29.039Z,39.50
2018-07-14T09:51:29.029Z,38.62
2018-07-14T09:52:29.017Z,38.10
2018-07-14T09:53:29.020Z,37.56
2018-07-14T09:54:29.001Z,36.23
2018-07-14T09:55:28.998Z,34.63
2018-07-14T09:56:28.976Z,33.28
2018-07-14T09:57:28.965Z,32.47
2018-07-14T09:58:28.967Z,31.32
2018-07-14T09:59:28.944Z,30.40
2018-07-14T10:00:28.933Z,29.54
2018-07-14T10:01:28.923Z,28.87
2018-07-14T10:02:28.909Z,28.46
2018-07-14T10:03:29.001Z,28.18
2018-07-14T10:04:28.888Z,28.36
2018-07-14T10:05:28.882Z,28.38
2018-07-14T10:06:28.867Z,28.57
2018-07-14T10:07:28.856Z,28.72
2018-07-14T10:08:28.855Z,28.85
2018-07-14T10:09:28.845Z,28.80
2018-07-14T10:10:28.826Z,28.89
2018-07-14T10:11:28.812Z,28.94
2018-07-14T10:12:28.803Z,28.73
2018-07-14T10:13:28.790Z,28.70
2018-07-14T10:14:28.790Z,28.54
2018-07-14T10:15:28.771Z,28.36
2018-07-14T10:16:28.771Z,27.90
2018-07-14T10:17:28.762Z,27.62
2018-07-14T10:18:28.735Z,27.24
2018-07-14T10:19:28.735Z,27.03
2018-07-14T10:20:28.716Z,27.06
2018-07-14T10:21:28.707Z,26.83
2018-07-14T10:22:28.694Z,26.61
2018-07-14T10:23:28.688Z,26.47
2018-07-14T10:24:28.684Z,26.42
2018-07-14T10:25:28.717Z,26.41
2018-07-14T10:26:28.656Z,26.32
2018-07-14T10:27:28.639Z,26.38
2018-07-14T10:28:28.628Z,26.34
2018-07-14T10:29:28.631Z,26.36
2018-07-14T10:30:28.610Z,26.36
2018-07-14T10:31:28.604Z,26.34
2018-07-14T10:32:28.592Z,26.32
2018-07-14T10:33:28.594Z,26.13
2018-07-14T10:34:28.585Z,26.09
2018-07-14T10:35:28.559Z,26.16
2018-07-14T10:36:28.543Z,25.91
2018-07-14T10:37:28.539Z,25.97
2018-07-14T10:38:28.527Z,26.00
2018-07-14T10:39:28.528Z,25.90
2018-07-14T10:40:28.498Z,25.81
2018-07-14T10:41:28.492Z,25.82
2018-07-14T10:42:28.543Z,25.89
2018-07-14T10:43:28.471Z,25.81
2018-07-14T10:44:28.467Z,25.89
2018-07-14T10:45:28.444Z,25.85
2018-07-14T10:46:28.434Z,25.75
2018-07-14T10:47:28.424Z,25.78
2018-07-14T10:48:28.413Z,25.79
2018-07-14T10:49:28.422Z,25.76
2018-07-14T10:50:28.395Z,25.76
2018-07-14T10:51:28.448Z,25.76
2018-07-14T10:52:28.374Z,25.63
2018-07-14T10:53:28.363Z,25.79
2018-07-14T10:54:28.355Z,25.76
2018-07-14T10:55:28.364Z,25.69
2018-07-14T10:56:28.326Z,25.74
2018-07-14T10:57:28.317Z,25.60
2018-07-14T10:58:28.304Z,25.71
2018-07-14T10:59:28.300Z,25.74
2018-07-14T11:00:28.297Z,25.71
2018-07-14T11:01:28.271Z,25.79
2018-07-14T11:02:28.264Z,25.91
2018-07-14T11:03:28.255Z,25.93
2018-07-14T11:04:28.276Z,25.93
2018-07-14T11:05:28.244Z,25.96
2018-07-14T11:06:28.219Z,25.89
2018-07-14T11:07:28.206Z,25.96
2018-07-14T11:08:28.195Z,25.89
2018-07-14T11:09:28.199Z,26.01
2018-07-14T11:10:28.187Z,26.03
2018-07-14T11:11:28.164Z,26.11
2018-07-14T11:12:28.155Z,26.00
2018-07-14T11:13:28.146Z,26.08
2018-07-14T11:14:28.133Z,26.12
2018-07-14T11:15:28.136Z,26.00
2018-07-14T11:16:28.111Z,25.93
2018-07-14T11:17:28.104Z,26.04
2018-07-14T11:18:28.091Z,26.12
2018-07-14T11:19:28.080Z,25.91
2018-07-14T11:20:28.083Z,25.86
2018-07-14T11:21:28.081Z,26.04
2018-07-14T11:22:28.048Z,26.11
2018-07-14T11:23:28.038Z,26.13
2018-07-14T11:24:28.024Z,26.24
2018-07-14T11:25:28.028Z,26.24
2018-07-14T11:26:28.005Z,26.27
2018-07-14T11:27:28.077Z,26.32
2018-07-14T11:28:27.982Z,26.42
2018-07-14T11:29:27.970Z,26.35
2018-07-14T11:30:27.969Z,26.44
2018-07-14T11:31:27.949Z,26.46
2018-07-14T11:32:27.937Z,26.47
2018-07-14T11:33:27.930Z,26.46
2018-07-14T11:34:27.918Z,26.39
2018-07-14T11:35:27.916Z,26.36
2018-07-14T11:36:27.894Z,26.36
2018-07-14T11:37:28.041Z,26.39
2018-07-14T11:38:27.875Z,26.50
2018-07-14T11:39:27.864Z,26.39
2018-07-14T11:40:27.853Z,26.39
2018-07-14T11:41:27.855Z,26.46
2018-07-14T11:42:27.833Z,26.35
2018-07-14T11:43:27.818Z,26.50
2018-07-14T11:44:27.808Z,26.41
2018-07-14T11:45:27.800Z,26.49
2018-07-14T11:46:27.799Z,26.51
2018-07-14T11:47:27.803Z,26.60
2018-07-14T11:48:27.767Z,26.53
2018-07-14T11:49:27.757Z,26.60
2018-07-14T11:50:27.744Z,26.42
2018-07-14T11:51:27.745Z,26.49
2018-07-14T11:52:27.724Z,26.54
2018-07-14T11:53:27.713Z,26.54
2018-07-14T11:54:27.701Z,26.51
2018-07-14T11:55:27.693Z,26.64
2018-07-14T11:56:27.701Z,26.46
2018-07-14T11:57:27.669Z,26.59
2018-07-14T11:58:27.659Z,26.60
2018-07-14T11:59:27.648Z,26.59
2018-07-14T12:00:27.637Z,26.64
2018-07-14T12:01:27.734Z,26.68
2018-07-14T12:02:27.617Z,26.72
2018-07-14T12:03:27.602Z,26.78
2018-07-14T12:04:27.592Z,26.81
2018-07-14T12:05:27.589Z,26.73
2018-07-14T12:06:27.581Z,26.81
2018-07-14T12:07:27.564Z,26.84
2018-07-14T12:08:27.599Z,26.81
2018-07-14T12:09:27.543Z,26.73
2018-07-14T12:10:27.529Z,26.59
2018-07-14T12:11:27.541Z,26.65
2018-07-14T12:12:27.614Z,26.79
2018-07-14T12:13:27.563Z,26.76
2018-07-14T12:14:27.488Z,26.68
2018-07-14T12:15:27.476Z,26.68
2018-07-14T12:16:27.581Z,26.65
2018-07-14T12:17:27.453Z,26.61
2018-07-14T12:18:27.603Z,26.29
2018-07-14T12:19:27.535Z,26.23
2018-07-14T12:20:27.425Z,26.21
2018-07-14T12:21:27.423Z,26.11
2018-07-14T12:22:27.471Z,26.06
2018-07-14T12:23:27.391Z,26.06
2018-07-14T12:24:27.381Z,26.01
2018-07-14T12:25:27.416Z,26.00
2018-07-14T12:26:27.391Z,26.01
2018-07-14T12:27:27.346Z,25.91
2018-07-14T12:28:27.338Z,25.97
2018-07-14T12:29:27.325Z,25.93
2018-07-14T12:30:27.340Z,26.04
2018-07-14T12:31:27.303Z,25.98
2018-07-14T12:32:27.306Z,25.96
2018-07-14T12:33:27.288Z,26.04
2018-07-14T12:34:27.275Z,25.96
2018-07-14T12:35:27.264Z,26.00
2018-07-14T12:36:27.272Z,25.94
2018-07-14T12:37:27.256Z,25.94
2018-07-14T12:38:27.231Z,25.94
2018-07-14T12:39:27.215Z,25.93
2018-07-14T12:40:27.207Z,25.82
2018-07-14T12:41:27.196Z,25.83
2018-07-14T12:42:27.195Z,25.83
2018-07-14T12:43:27.348Z,25.83
2018-07-14T12:44:27.167Z,25.81
2018-07-14T12:45:27.154Z,25.75
2018-07-14T12:46:27.142Z,25.81
2018-07-14T12:47:27.149Z,25.78
2018-07-14T12:48:27.125Z,25.78
2018-07-14T12:49:27.114Z,25.85
2018-07-14T12:50:27.099Z,25.78
2018-07-14T12:51:27.089Z,25.83
2018-07-14T12:52:27.104Z,25.81
2018-07-14T12:53:27.067Z,25.90
2018-07-14T12:54:27.056Z,25.93
2018-07-14T12:55:27.046Z,26.03
2018-07-14T12:56:27.037Z,26.08
2018-07-14T12:57:27.024Z,26.19
2018-07-14T12:58:27.038Z,26.11
2018-07-14T12:59:27.006Z,26.04
2018-07-14T13:00:26.992Z,26.13
2018-07-14T13:01:26.979Z,26.13
2018-07-14T13:02:26.970Z,26.17
2018-07-14T13:03:26.972Z,26.27
2018-07-14T13:04:26.947Z,26.23
2018-07-14T13:05:26.938Z,26.13
2018-07-14T13:06:26.954Z,26.11
2018-07-14T13:07:26.915Z,26.09
2018-07-14T13:08:26.916Z,26.17
2018-07-14T13:09:26.897Z,26.17
2018-07-14T13:10:26.886Z,26.23
2018-07-14T13:11:26.875Z,26.28
2018-07-14T13:12:26.865Z,26.29
2018-07-14T13:13:26.864Z,26.32
2018-07-14T13:14:26.839Z,26.41
2018-07-14T13:15:26.830Z,26.47
2018-07-14T13:16:26.819Z,26.47
2018-07-14T13:17:26.809Z,26.51
2018-07-14T13:18:26.809Z,26.57
2018-07-14T13:19:26.786Z,26.56
2018-07-14T13:20:26.775Z,26.64
2018-07-14T13:21:26.769Z,26.61
2018-07-14T13:22:26.756Z,26.61
2018-07-14T13:23:26.753Z,26.60
2018-07-14T13:24:26.733Z,26.68
2018-07-14T13:25:26.721Z,26.65
2018-07-14T13:26:26.712Z,26.68
2018-07-14T13:27:26.701Z,26.57
2018-07-14T13:28:26.708Z,26.59
2018-07-14T13:29:26.682Z,26.54
2018-07-14T13:30:26.669Z,26.60
2018-07-14T13:31:26.658Z,26.57
2018-07-14T13:32:26.645Z,26.69
2018-07-14T13:33:26.646Z,26.64
2018-07-14T13:34:26.632Z,26.64
2018-07-14T13:35:26.615Z,26.66
2018-07-14T13:36:26.609Z,26.59
2018-07-14T13:37:26.594Z,26.61
2018-07-14T13:38:26.610Z,26.42
2018-07-14T13:39:26.590Z,26.41
2018-07-14T13:40:26.561Z,26.51
2018-07-14T13:41:26.548Z,26.49
2018-07-14T13:42:26.544Z,26.56
2018-07-14T13:43:26.526Z,26.53
2018-07-14T13:44:26.533Z,26.61
2018-07-14T13:45:26.506Z,26.57
2018-07-14T13:46:26.495Z,26.64
2018-07-14T13:47:26.485Z,26.57
2018-07-14T13:48:26.473Z,26.41
2018-07-14T13:49:26.476Z,26.46
2018-07-14T13:50:26.455Z,26.38
2018-07-14T13:51:26.441Z,26.41
2018-07-14T13:52:26.432Z,26.34
2018-07-14T13:53:26.424Z,26.32
2018-07-14T13:54:26.444Z,26.28
2018-07-14T13:55:26.399Z,26.19
2018-07-14T13:56:26.387Z,26.12
2018-07-14T13:57:26.374Z,26.13
2018-07-14T13:58:26.364Z,26.19
2018-07-14T13:59:26.359Z,26.08
2018-07-14T14:00:26.390Z,26.12
2018-07-14T14:01:26.332Z,26.27
2018-07-14T14:02:26.337Z,26.35
2018-07-14T14:03:26.316Z,26.39
2018-07-14T14:04:26.304Z,26.49
2018-07-14T14:05:26.300Z,26.57
2018-07-14T14:06:26.278Z,26.53
2018-07-14T14:07:26.269Z,26.56
2018-07-14T14:08:26.258Z,26.57
2018-07-14T14:09:26.264Z,26.65
2018-07-14T14:10:26.249Z,26.69
2018-07-14T14:11:26.399Z,26.76
2018-07-14T14:12:26.217Z,26.75
2018-07-14T14:13:26.202Z,26.72
2018-07-14T14:14:26.192Z,26.78
2018-07-14T14:15:26.192Z,26.79
2018-07-14T14:16:26.170Z,26.79
2018-07-14T14:17:26.161Z,26.97
2018-07-14T14:18:26.149Z,26.93
2018-07-14T14:19:26.137Z,26.91
2018-07-14T14:20:26.137Z,26.87
2018-07-14T14:21:26.117Z,26.76
2018-07-14T14:22:26.105Z,26.68
2018-07-14T14:23:26.092Z,26.60
2018-07-14T14:24:26.086Z,26.54
2018-07-14T14:25:26.090Z,26.46
2018-07-14T14:26:26.068Z,26.31
2018-07-14T14:27:26.081Z,26.32
2018-07-14T14:28:26.041Z,26.28
2018-07-14T14:29:26.038Z,26.31
2018-07-14T14:30:26.031Z,26.21
2018-07-14T14:31:26.008Z,26.13
2018-07-14T14:32:25.998Z,26.06
2018-07-14T14:33:25.998Z,26.12
2018-07-14T14:34:25.978Z,26.16
2018-07-14T14:35:25.964Z,26.06
2018-07-14T14:36:25.975Z,26.00
2018-07-14T14:37:25.945Z,26.06
2018-07-14T14:38:25.932Z,26.03
2018-07-14T14:39:25.923Z,26.09
2018-07-14T14:40:25.914Z,26.19
2018-07-14T14:41:25.917Z,26.21
2018-07-14T14:42:25.892Z,26.16
2018-07-14T14:43:25.880Z,26.12
2018-07-14T14:44:25.870Z,26.08
2018-07-14T14:45:25.857Z,26.03
2018-07-14T14:46:25.861Z,25.98
2018-07-14T14:47:25.836Z,25.96
2018-07-14T14:48:25.825Z,25.81
2018-07-14T14:49:25.814Z,25.83
2018-07-14T14:50:25.806Z,25.78
2018-07-14T14:51:25.828Z,25.63
2018-07-14T14:52:25.798Z,25.69
2018-07-14T14:53:25.771Z,25.69
2018-07-14T14:54:25.764Z,25.72
2018-07-14T14:55:25.752Z,25.81
2018-07-14T14:56:25.740Z,25.78
2018-07-14T14:57:25.741Z,25.72
2018-07-14T14:58:25.721Z,25.74
2018-07-14T14:59:25.713Z,25.78
2018-07-14T15:00:25.699Z,25.78
2018-07-14T15:01:25.684Z,25.72
2018-07-14T15:02:25.683Z,25.64
2018-07-14T15:03:25.673Z,25.67
2018-07-14T15:04:25.656Z,25.66
2018-07-14T15:05:25.641Z,25.74
2018-07-14T15:06:25.629Z,25.76
2018-07-14T15:07:25.631Z,25.75
2018-07-14T15:08:25.608Z,25.74
2018-07-14T15:09:25.601Z,25.75
2018-07-14T15:10:25.586Z,25.60
2018-07-14T15:11:25.584Z,25.54
2018-07-14T15:12:25.584Z,25.49
2018-07-14T15:13:25.553Z,25.35
2018-07-14T15:14:25.544Z,25.31
2018-07-14T15:15:25.537Z,25.34
2018-07-14T15:16:25.565Z,25.31
2018-07-14T15:17:25.525Z,25.30
2018-07-14T15:18:27.496Z,25.35
2018-07-14T15:19:25.512Z,25.31
2018-07-14T15:20:25.479Z,25.38
2018-07-14T15:21:25.471Z,25.30
2018-07-14T15:22:25.483Z,25.39
2018-07-14T15:23:25.445Z,25.29
2018-07-14T15:24:25.435Z,25.36
2018-07-14T15:25:25.424Z,25.30
2018-07-14T15:26:25.417Z,25.31
2018-07-14T15:27:25.407Z,25.30
2018-07-14T15:28:25.427Z,25.36
2018-07-14T15:29:25.388Z,25.35
2018-07-14T15:30:25.390Z,25.41
2018-07-14T15:31:25.360Z,25.45
2018-07-14T15:32:25.529Z,25.51
2018-07-14T15:33:25.525Z,25.60
2018-07-14T15:34:27.359Z,25.57
2018-07-14T15:35:25.323Z,25.54
2018-07-14T15:36:25.307Z,25.66
2018-07-14T15:37:25.296Z,25.67
2018-07-14T15:38:25.288Z,25.66
2018-07-14T15:39:25.285Z,25.60
2018-07-14T15:40:25.265Z,25.64
2018-07-14T15:41:25.281Z,25.61
2018-07-14T15:42:25.242Z,25.66
2018-07-14T15:43:25.238Z,25.75
2018-07-14T15:44:25.235Z,25.75
2018-07-14T15:45:25.211Z,25.64
2018-07-14T15:46:25.207Z,25.66
2018-07-14T15:47:25.187Z,25.54
2018-07-14T15:48:25.176Z,25.48
2018-07-14T15:49:25.181Z,25.30
2018-07-14T15:50:25.156Z,25.34
2018-07-14T15:51:25.147Z,25.12
2018-07-14T15:52:25.141Z,25.07
2018-07-14T15:53:25.123Z,25.07
2018-07-14T15:54:25.130Z,25.02
2018-07-14T15:55:25.103Z,25.01
2018-07-14T15:56:25.090Z,25.01
2018-07-14T15:57:25.081Z,24.98
2018-07-14T15:58:25.078Z,25.01
2018-07-14T15:59:25.075Z,24.99
2018-07-14T16:00:25.156Z,25.01
2018-07-14T16:01:25.038Z,25.08
2018-07-14T16:02:25.025Z,25.16
2018-07-14T16:03:25.021Z,25.05
2018-07-14T16:04:25.069Z,25.04
2018-07-14T16:05:24.995Z,25.09
2018-07-14T16:06:24.984Z,25.04
2018-07-14T16:07:24.973Z,24.99
2018-07-14T16:08:24.968Z,25.04
2018-07-14T16:09:24.954Z,24.99
2018-07-14T16:10:24.969Z,25.05
2018-07-14T16:11:24.937Z,24.99
2018-07-14T16:12:24.923Z,24.93
2018-07-14T16:13:24.915Z,24.92
2018-07-14T16:14:24.902Z,24.94
2018-07-14T16:15:24.904Z,24.86
2018-07-14T16:16:24.878Z,24.86
2018-07-14T16:17:24.870Z,24.90
2018-07-14T16:18:24.853Z,24.92
2018-07-14T16:19:24.843Z,24.97
2018-07-14T16:20:24.859Z,24.97
2018-07-14T16:21:24.822Z,25.02
2018-07-14T16:22:24.810Z,24.99
2018-07-14T16:23:24.801Z,25.01
2018-07-14T16:24:24.794Z,25.02
2018-07-14T16:25:24.795Z,25.12
2018-07-14T16:26:24.774Z,24.99
2018-07-14T16:27:24.760Z,25.01
2018-07-14T16:28:24.780Z,25.09
2018-07-14T16:29:24.741Z,25.05
2018-07-14T16:30:24.744Z,25.14
2018-07-14T16:31:24.717Z,25.14
2018-07-14T16:32:24.726Z,25.19
2018-07-14T16:33:24.692Z,25.17
2018-07-14T16:34:24.683Z,25.31
2018-07-14T16:35:24.695Z,25.30
2018-07-14T16:36:24.661Z,25.23
2018-07-14T16:37:24.649Z,25.24
2018-07-14T16:38:24.642Z,25.22
2018-07-14T16:39:24.628Z,25.22
2018-07-14T16:40:24.621Z,25.16
2018-07-14T16:41:24.627Z,25.22
2018-07-14T16:42:24.597Z,25.09
2018-07-14T16:43:24.585Z,25.19
2018-07-14T16:44:24.586Z,25.11
2018-07-14T16:45:24.565Z,25.19
2018-07-14T16:46:24.598Z,25.22
2018-07-14T16:47:24.542Z,25.24
2018-07-14T16:48:24.539Z,25.27
2018-07-14T16:49:24.519Z,25.34
2018-07-14T16:50:24.512Z,25.29
2018-07-14T16:51:24.513Z,25.20
2018-07-14T16:52:24.487Z,25.30